Time;durP1;ratioP1;P1;durP2;ratioP2;P2;SDS_P1;SDS_P2;PMS_P1;PMS_P2;Temp;Humidity;BMP_temperature;BMP_pressure;BME280_temperature;BME280_humidity;BME280_pressure;Samples;Min_cycle;Max_cycle;Signal;HPM_P1;HPM_P2
2023/04/20 00:02:02;;;;;;;6.50;2.65;;;;;;;10.02;47.89;102364.69;7396792;19;20021;-60
2023/04/20 00:04:30;;;;;;;6.45;2.50;;;;;;;10.05;47.78;102366.34;7394115;19;20022;-59
2023/04/20 00:06:57;;;;;;;6.70;2.63;;;;;;;10.00;48.01;102356.84;7394251;19;20110;-60
2023/04/20 00:09:26;;;;;;;9.68;2.33;;;;;;;10.08;48.07;102350.34;7395708;19;20019;-60
2023/04/20 00:11:52;;;;;;;5.95;2.50;;;;;;;10.11;47.31;102358.09;7396515;19;20318;-60
2023/04/20 00:14:19;;;;;;;6.30;2.33;;;;;;;10.12;47.46;102365.13;7396063;19;20022;-60
2023/04/20 00:16:47;;;;;;;6.55;2.40;;;;;;;10.06;48.03;102349.53;7394049;19;20019;-60
2023/04/20 00:19:14;;;;;;;5.93;2.65;;;;;;;9.96;49.71;102354.41;7394290;19;20022;-59
2023/04/20 00:21:42;;;;;;;6.75;2.70;;;;;;;9.81;49.99;102363.03;7394550;19;20027;-61
2023/04/20 00:24:09;;;;;;;5.82;2.35;;;;;;;9.83;49.95;102369.94;7396586;19;20121;-59
2023/04/20 00:26:36;;;;;;;5.45;2.33;;;;;;;9.76;51.39;102366.69;7391963;19;20098;-60
2023/04/20 00:29:02;;;;;;;5.10;2.65;;;;;;;9.67;52.22;102359.19;7395171;19;20098;-59
2023/04/20 00:31:30;;;;;;;5.93;2.67;;;;;;;9.61;52.61;102358.59;7395199;19;20034;-61
2023/04/20 00:33:57;;;;;;;4.93;2.65;;;;;;;9.45;53.37;102369.84;7395340;19;20082;-59
2023/04/20 00:36:25;;;;;;;5.90;2.58;;;;;;;9.40;54.53;102360.41;7393283;19;20026;-60
2023/04/20 00:38:52;;;;;;;5.55;2.63;;;;;;;9.37;54.77;102356.09;7393882;19;20015;-60
2023/04/20 00:41:20;;;;;;;4.93;2.42;;;;;;;9.34;55.15;102356.22;7393674;19;20015;-60
2023/04/20 00:43:51;;;;;;;7.38;2.80;;;;;;;9.26;55.71;102358.31;7394415;19;20010;-60
2023/04/20 00:46:19;;;;;;;6.22;2.72;;;;;;;9.35;55.75;102350.03;7391882;19;20044;-60
2023/04/20 00:48:48;;;;;;;7.07;2.63;;;;;;;9.36;55.91;102346.44;7394760;19;20026;-60
2023/04/20 00:51:15;;;;;;;6.68;2.83;;;;;;;9.43;56.02;102339.97;7394496;19;20586;-59
2023/04/20 00:53:42;;;;;;;7.10;2.88;;;;;;;9.51;56.10;102329.91;7392802;19;20069;-60
2023/04/20 00:56:11;;;;;;;6.13;2.72;;;;;;;9.42;55.83;102330.28;7392525;19;20014;-62
2023/04/20 00:58:38;;;;;;;5.45;2.65;;;;;;;9.44;56.00;102331.09;7393437;19;20023;-61
2023/04/20 01:01:06;;;;;;;6.30;2.80;;;;;;;9.44;55.98;102323.16;7392898;19;20172;-61
2023/04/20 01:03:33;;;;;;;7.50;2.70;;;;;;;9.48;56.17;102321.25;7394915;19;20039;-61
2023/04/20 01:06:01;;;;;;;7.10;2.97;;;;;;;9.54;56.01;102313.06;7393002;19;20011;-60
2023/04/20 01:08:28;;;;;;;7.35;2.70;;;;;;;9.53;55.88;102303.38;7393919;19;20085;-60
2023/04/20 01:10:55;;;;;;;6.05;2.53;;;;;;;9.41;56.13;102291.56;7394526;19;20843;-60
2023/04/20 01:13:22;;;;;;;5.97;2.90;;;;;;;9.46;55.95;102291.38;7394634;19;20023;-60
2023/04/20 01:15:49;;;;;;;5.55;3.03;;;;;;;9.53;55.67;102290.16;7393241;19;20520;-60
2023/04/20 01:18:18;;;;;;;7.40;2.40;;;;;;;9.50;55.41;102282.38;7394279;19;20665;-60
2023/04/20 01:20:46;;;;;;;5.72;2.40;;;;;;;9.43;55.83;102279.16;7392907;19;20018;-61
2023/04/20 01:23:13;;;;;;;6.65;2.35;;;;;;;9.53;55.51;102284.88;7392704;19;20021;-61
2023/04/20 01:25:40;;;;;;;4.72;2.53;;;;;;;9.50;55.78;102290.28;7392724;19;20023;-61
2023/04/20 01:28:08;;;;;;;5.95;2.63;;;;;;;9.55;55.42;102290.13;7394507;19;20022;-61
2023/04/20 01:30:36;;;;;;;5.32;2.30;;;;;;;9.58;55.29;102279.38;7393626;19;20328;-62
2023/04/20 01:33:03;;;;;;;6.10;2.97;;;;;;;9.59;55.29;102281.97;7393353;19;20014;-61
2023/04/20 01:35:30;;;;;;;6.07;2.45;;;;;;;9.58;55.59;102271.44;7392781;19;20055;-60
2023/04/20 01:37:57;;;;;;;7.50;2.60;;;;;;;9.56;55.32;102275.97;7393332;19;20018;-61
2023/04/20 01:40:24;;;;;;;5.65;2.50;;;;;;;9.56;55.31;102275.97;7390204;19;20364;-61
2023/04/20 01:42:51;;;;;;;6.50;2.63;;;;;;;9.48;55.09;102271.00;7392073;19;20018;-60
2023/04/20 01:45:18;;;;;;;7.07;2.65;;;;;;;9.48;55.35;102269.22;7391586;19;20089;-60
2023/04/20 01:47:45;;;;;;;4.88;2.20;;;;;;;9.52;55.09;102260.22;7393114;19;20359;-61
2023/04/20 01:50:12;;;;;;;6.15;2.70;;;;;;;9.51;54.76;102250.59;7393020;19;20015;-61
2023/04/20 01:52:39;;;;;;;5.05;2.38;;;;;;;9.48;55.00;102247.22;7392542;19;20019;-61
2023/04/20 01:55:07;;;;;;;5.50;2.70;;;;;;;9.48;55.09;102242.78;7392954;19;20082;-61
2023/04/20 01:57:35;;;;;;;6.90;2.30;;;;;;;9.43;55.31;102243.94;7393097;19;20018;-60
2023/04/20 02:00:03;;;;;;;8.27;2.78;;;;;;;9.39;55.39;102243.22;7391172;19;20053;-60
2023/04/20 02:02:29;;;;;;;6.82;2.83;;;;;;;9.44;54.88;102240.34;7392748;19;20010;-59
2023/04/20 02:04:57;;;;;;;6.25;2.97;;;;;;;9.44;54.98;102243.00;7392931;19;20034;-60
2023/04/20 02:07:23;;;;;;;7.45;2.80;;;;;;;9.44;54.97;102246.50;7390223;19;20459;-61
2023/04/20 02:09:51;;;;;;;4.75;2.40;;;;;;;9.45;54.83;102242.91;7392164;19;20014;-60
2023/04/20 02:12:18;;;;;;;4.95;2.45;;;;;;;9.42;54.62;102239.53;7390949;19;20014;-60
2023/04/20 02:14:45;;;;;;;4.72;2.15;;;;;;;9.47;54.21;102238.44;7390784;19;20019;-60
2023/04/20 02:17:12;;;;;;;9.07;2.50;;;;;;;9.48;54.11;102226.06;7390267;19;20081;-60
2023/04/20 02:19:40;;;;;;;6.28;2.50;;;;;;;9.45;54.38;102234.97;7389227;19;20014;-61
2023/04/20 02:22:06;;;;;;;6.80;2.45;;;;;;;9.45;54.50;102229.69;7391592;19;20088;-60
2023/04/20 02:24:33;;;;;;;7.30;2.28;;;;;;;9.39;54.31;102231.78;7392122;19;20039;-60
2023/04/20 02:27:01;;;;;;;8.60;2.55;;;;;;;9.41;54.24;102225.47;7389970;19;20621;-60
2023/04/20 02:29:28;;;;;;;5.90;2.28;;;;;;;9.36;54.61;102235.41;7389946;19;20031;-59
2023/04/20 02:31:55;;;;;;;4.20;2.30;;;;;;;9.34;54.44;102231.97;7392051;19;20018;-59
2023/04/20 02:34:22;;;;;;;4.90;2.33;;;;;;;9.31;54.73;102223.31;7391324;19;20069;-59
2023/04/20 02:36:49;;;;;;;9.07;2.70;;;;;;;9.30;54.84;102230.38;7390240;19;20025;-60
2023/04/20 02:39:16;;;;;;;7.97;2.55;;;;;;;9.34;55.20;102234.59;7389518;19;20419;-59
2023/04/20 02:41:43;;;;;;;6.70;2.35;;;;;;;9.36;55.14;102232.75;7391607;19;20018;-60
2023/04/20 02:44:10;;;;;;;7.93;2.83;;;;;;;9.36;55.38;102235.41;7391055;19;20021;-61
2023/04/20 02:46:37;;;;;;;5.30;2.38;;;;;;;9.30;55.61;102225.09;7389716;19;20021;-60
2023/04/20 02:49:04;;;;;;;7.78;2.58;;;;;;;9.29;55.55;102220.75;7389448;19;20356;-60
2023/04/20 02:51:31;;;;;;;6.03;2.30;;;;;;;9.25;55.99;102213.88;7391445;19;20033;-60
2023/04/20 02:53:58;;;;;;;6.90;2.45;;;;;;;9.23;55.86;102213.97;7390929;19;20014;-60
2023/04/20 02:56:25;;;;;;;8.50;2.70;;;;;;;9.15;55.90;102207.28;7389611;19;20010;-60
2023/04/20 02:58:52;;;;;;;5.50;2.50;;;;;;;9.12;56.37;102213.56;7390359;19;20475;-58
2023/04/20 03:01:19;;;;;;;5.45;2.30;;;;;;;9.10;56.44;102217.19;7390802;19;20018;-59
2023/04/20 03:03:46;;;;;;;5.30;2.33;;;;;;;9.15;56.63;102217.84;7390832;19;20443;-59
2023/04/20 03:06:13;;;;;;;7.63;2.70;;;;;;;9.14;56.77;102211.72;7390056;19;20019;-60
2023/04/20 03:08:40;;;;;;;8.48;2.85;;;;;;;9.14;56.69;102209.06;7390065;19;20503;-58
2023/04/20 03:11:07;;;;;;;6.80;2.40;;;;;;;9.14;56.93;102202.91;7390340;19;20027;-59
2023/04/20 03:13:35;;;;;;;7.93;2.90;;;;;;;9.13;57.11;102210.00;7390689;19;20026;-58
2023/04/20 03:16:02;;;;;;;6.05;2.30;;;;;;;9.02;57.56;102221.03;7389318;19;20468;-62
2023/04/20 03:18:29;;;;;;;6.55;2.20;;;;;;;8.98;57.69;102216.81;7397099;19;20072;-60
2023/04/20 03:20:56;;;;;;;7.40;2.67;;;;;;;9.00;57.64;102214.09;7393723;19;20015;-60
2023/04/20 03:23:23;;;;;;;6.68;2.58;;;;;;;9.08;57.53;102213.75;7397460;19;20014;-61
2023/04/20 03:25:50;;;;;;;5.68;2.38;;;;;;;9.09;57.54;102207.56;7396236;19;20014;-62
2023/04/20 03:28:17;;;;;;;6.00;2.70;;;;;;;9.03;57.93;102204.25;7397432;19;20025;-60
2023/04/20 03:30:44;;;;;;;8.23;2.63;;;;;;;9.13;57.67;102198.56;7396849;19;20077;-61
2023/04/20 03:33:11;;;;;;;6.40;2.58;;;;;;;9.05;58.02;102200.69;7397624;19;20479;-61
2023/04/20 03:35:38;;;;;;;7.10;2.97;;;;;;;9.10;58.14;102204.84;7396080;19;20018;-61
2023/04/20 03:38:05;;;;;;;7.10;2.70;;;;;;;9.18;58.11;102201.84;7395463;19;20487;-60
2023/04/20 03:40:32;;;;;;;5.93;2.58;;;;;;;9.18;58.19;102202.72;7395348;19;20029;-61
2023/04/20 03:42:59;;;;;;;6.72;2.63;;;;;;;9.10;58.57;102204.84;7397490;19;20014;-61
2023/04/20 03:45:26;;;;;;;8.32;2.95;;;;;;;9.09;58.77;102194.34;7396027;19;20025;-61
2023/04/20 03:47:53;;;;;;;6.40;2.80;;;;;;;9.06;58.90;102194.47;7397756;19;20163;-61
2023/04/20 03:50:21;;;;;;;8.63;2.70;;;;;;;9.05;58.86;102201.56;7396680;19;20042;-61
2023/04/20 03:52:48;;;;;;;5.07;2.47;;;;;;;9.03;58.78;102198.97;7397160;19;20010;-61
2023/04/20 03:55:14;;;;;;;6.10;2.80;;;;;;;9.05;58.86;102203.34;7395757;19;20023;-60
2023/04/20 03:57:41;;;;;;;9.75;2.53;;;;;;;9.03;58.77;102193.66;7397081;19;20500;-59
2023/04/20 04:00:10;;;;;;;6.63;2.55;;;;;;;8.91;59.27;102194.22;7395260;19;20035;-60
2023/04/20 04:02:37;;;;;;;6.45;2.83;;;;;;;9.00;59.27;102200.88;7397080;19;20078;-59
2023/04/20 04:05:05;;;;;;;8.23;3.00;;;;;;;9.06;59.19;102202.41;7396087;19;20092;-60
2023/04/20 04:07:32;;;;;;;8.90;3.00;;;;;;;9.03;59.33;102193.66;7394820;19;20351;-59
2023/04/20 04:09:59;;;;;;;7.00;2.70;;;;;;;9.07;59.88;102196.19;7396049;19;20022;-59
2023/04/20 04:12:26;;;;;;;7.00;2.80;;;;;;;8.93;60.42;102188.84;7395731;19;20018;-55
2023/04/20 04:14:53;;;;;;;10.02;2.88;;;;;;;9.03;60.59;102206.03;7395798;19;20018;-56
2023/04/20 04:17:20;;;;;;;8.00;2.78;;;;;;;9.03;60.94;102198.09;7394954;19;20027;-54
2023/04/20 04:19:47;;;;;;;7.53;3.08;;;;;;;8.97;61.48;102201.03;7395636;19;20014;-54
2023/04/20 04:22:14;;;;;;;6.30;2.72;;;;;;;8.91;61.97;102194.22;7396168;19;20025;-55
2023/04/20 04:24:41;;;;;;;8.50;3.05;;;;;;;8.92;62.29;102195.94;7395892;19;20022;-54
2023/04/20 04:27:08;;;;;;;8.60;2.90;;;;;;;8.97;62.13;102196.59;7395969;19;20028;-54
2023/04/20 04:29:37;;;;;;;9.63;3.08;;;;;;;8.93;62.85;102197.66;7395642;19;20018;-56
2023/04/20 04:32:04;;;;;;;6.78;2.50;;;;;;;8.86;62.86;102200.66;7394601;19;20018;-55
2023/04/20 04:34:32;;;;;;;7.90;2.90;;;;;;;8.90;62.98;102197.78;7390984;19;20353;-54
2023/04/20 04:37:00;;;;;;;9.40;3.28;;;;;;;8.84;63.50;102197.19;7396206;19;20014;-56
2023/04/20 04:39:27;;;;;;;9.43;3.20;;;;;;;8.75;63.15;102209.88;7394603;19;20082;-55
2023/04/20 04:41:54;;;;;;;10.52;3.22;;;;;;;8.77;63.56;102207.16;7394008;19;20068;-55
2023/04/20 04:44:21;;;;;;;7.75;2.92;;;;;;;8.86;63.42;102208.56;7393159;19;20019;-55
2023/04/20 04:46:48;;;;;;;8.20;3.15;;;;;;;8.82;63.24;102204.34;7395792;19;20102;-55
2023/04/20 04:49:15;;;;;;;8.40;3.08;;;;;;;8.84;62.90;102211.25;7395205;19;20018;-55
2023/04/20 04:51:43;;;;;;;9.65;3.17;;;;;;;8.83;63.08;102212.19;7395089;19;20014;-55
2023/04/20 04:54:10;;;;;;;9.75;3.03;;;;;;;8.82;63.56;102217.53;7393067;19;20011;-55
2023/04/20 04:56:37;;;;;;;6.55;2.80;;;;;;;8.78;63.69;102214.19;7393053;19;20026;-55
2023/04/20 04:59:04;;;;;;;7.13;3.00;;;;;;;8.71;63.50;102215.34;7393245;19;20022;-56
2023/04/20 05:01:31;;;;;;;8.38;2.97;;;;;;;8.73;63.78;102208.22;7392263;19;20033;-55
2023/04/20 05:03:58;;;;;;;9.50;3.17;;;;;;;8.73;63.87;102208.22;7392849;19;20018;-56
2023/04/20 05:06:25;;;;;;;7.95;2.95;;;;;;;8.75;64.25;102209.88;7394042;19;20043;-55
2023/04/20 05:08:52;;;;;;;6.47;2.88;;;;;;;8.71;64.57;102200.38;7394100;19;20040;-55
2023/04/20 05:11:19;;;;;;;8.55;3.22;;;;;;;8.71;64.90;102199.50;7393771;19;20018;-55
2023/04/20 05:13:47;;;;;;;8.32;2.95;;;;;;;8.71;64.97;102207.44;7392661;19;20068;-55
2023/04/20 05:16:15;;;;;;;8.65;3.33;;;;;;;8.73;65.27;102206.44;7393334;19;20029;-55
2023/04/20 05:18:42;;;;;;;8.68;3.30;;;;;;;8.73;65.26;102211.72;7392094;19;20018;-55
2023/04/20 05:21:09;;;;;;;11.20;3.10;;;;;;;8.75;65.45;102215.16;7391981;19;20099;-55
2023/04/20 05:23:36;;;;;;;9.38;3.28;;;;;;;8.78;65.38;102216.81;7391325;19;20025;-55
2023/04/20 05:26:03;;;;;;;9.65;3.20;;;;;;;8.75;65.96;102217.78;7393733;19;20495;-55
2023/04/20 05:28:33;;;;;;;11.63;3.72;;;;;;;8.75;65.67;102216.94;7393556;19;20081;-55
2023/04/20 05:31:00;;;;;;;8.48;3.28;;;;;;;8.72;65.75;102220.56;7393827;19;20011;-55
2023/04/20 05:33:27;;;;;;;8.65;3.63;;;;;;;8.69;65.88;102223.31;7392923;19;20015;-54
2023/04/20 05:35:56;;;;;;;10.63;3.50;;;;;;;8.75;66.01;102224.88;7391589;19;20064;-55
2023/04/20 05:38:24;;;;;;;11.45;3.90;;;;;;;8.74;65.96;102215.22;7393394;19;20022;-55
2023/04/20 05:40:51;;;;;;;9.30;3.78;;;;;;;8.72;66.38;102225.84;7391053;19;20089;-55
2023/04/20 05:43:18;;;;;;;8.85;3.53;;;;;;;8.67;66.62;102226.97;7392684;19;20018;-55
2023/04/20 05:45:45;;;;;;;10.63;3.50;;;;;;;8.75;66.07;102224.88;7391226;19;20022;-55
2023/04/20 05:48:12;;;;;;;9.90;3.50;;;;;;;8.77;66.07;102217.72;7391433;19;20033;-56
2023/04/20 05:50:39;;;;;;;10.57;3.60;;;;;;;8.79;65.76;102219.38;7392866;19;20023;-55
2023/04/20 05:53:06;;;;;;;13.82;3.53;;;;;;;8.84;66.44;102210.41;7391966;19;20011;-55
2023/04/20 05:55:33;;;;;;;9.45;3.33;;;;;;;8.82;66.52;102214.91;7392766;19;20098;-55
2023/04/20 05:58:00;;;;;;;10.00;3.63;;;;;;;8.78;66.50;102217.66;7392951;19;20082;-55
2023/04/20 06:00:27;;;;;;;10.48;3.85;;;;;;;8.84;66.35;102221.81;7391749;19;20028;-55
2023/04/20 06:02:54;;;;;;;9.77;3.70;;;;;;;8.77;66.32;102218.56;7391705;19;20015;-55
2023/04/20 06:05:21;;;;;;;11.73;3.47;;;;;;;8.77;66.63;102229.13;7391222;19;20046;-55
2023/04/20 06:07:48;;;;;;;8.50;3.55;;;;;;;8.75;66.83;102225.72;7392863;19;20023;-56
2023/04/20 06:10:15;;;;;;;10.40;3.55;;;;;;;8.86;66.57;102222.63;7392104;19;20025;-55
2023/04/20 06:12:42;;;;;;;9.85;3.80;;;;;;;8.94;66.57;102232.88;7390592;19;20019;-56
2023/04/20 06:15:09;;;;;;;12.63;3.97;;;;;;;8.93;66.34;102229.38;7390222;19;20010;-55
2023/04/20 06:17:39;;;;;;;8.27;3.70;;;;;;;8.91;66.45;102225.91;7392233;19;20027;-55
2023/04/20 06:20:10;;;;;;;11.95;4.13;;;;;;;8.94;66.57;102222.31;7391892;19;20022;-56
2023/04/20 06:22:44;;;;;;;11.40;3.72;;;;;;;9.00;66.44;102222.91;7391888;19;20030;-55
2023/04/20 06:25:12;;;;;;;9.52;4.10;;;;;;;8.95;66.41;102222.22;7392080;19;20078;-56
2023/04/20 06:27:39;;;;;;;9.52;3.92;;;;;;;8.90;66.69;102229.50;7390479;19;20039;-55
2023/04/20 06:30:07;;;;;;;9.50;4.20;;;;;;;8.99;66.64;102225.59;7391503;19;20018;-55
2023/04/20 06:32:34;;;;;;;9.88;4.10;;;;;;;8.90;66.90;102226.84;7391380;19;20094;-55
2023/04/20 06:35:01;;;;;;;11.40;4.32;;;;;;;8.85;67.30;102220.88;7391604;19;20385;-55
2023/04/20 06:37:28;;;;;;;11.55;4.10;;;;;;;8.87;67.25;102224.34;7391265;19;20499;-55
2023/04/20 06:39:55;;;;;;;10.48;4.30;;;;;;;8.90;66.88;102223.34;7389674;19;20026;-55
2023/04/20 06:42:22;;;;;;;12.30;4.40;;;;;;;8.88;67.39;102225.19;7391422;19;20015;-54
2023/04/20 06:44:49;;;;;;;9.43;4.68;;;;;;;8.88;67.20;102236.63;7389911;19;20039;-55
2023/04/20 06:47:16;;;;;;;12.35;4.47;;;;;;;8.81;67.54;102227.22;7391770;19;20022;-55
2023/04/20 06:49:43;;;;;;;10.77;4.35;;;;;;;8.85;67.56;102226.16;7390794;19;20030;-55
2023/04/20 06:52:10;;;;;;;10.93;4.55;;;;;;;8.90;67.23;102226.00;7387292;19;20026;-55
2023/04/20 06:54:37;;;;;;;11.23;4.25;;;;;;;8.93;67.69;102228.47;7389512;19;20015;-54
2023/04/20 06:57:04;;;;;;;10.85;4.95;;;;;;;9.06;66.85;102231.47;7388951;19;20018;-55
2023/04/20 06:59:31;;;;;;;11.43;4.97;;;;;;;9.11;67.38;102225.03;7390737;19;20086;-55
2023/04/20 07:01:58;;;;;;;9.90;4.60;;;;;;;9.22;67.02;102228.06;7389252;19;20018;-55
2023/04/20 07:04:25;;;;;;;10.93;4.65;;;;;;;9.34;66.59;102226.66;7387696;19;20015;-55
2023/04/20 07:06:52;;;;;;;11.20;4.90;;;;;;;9.41;66.47;102227.25;7388974;19;20047;-53
2023/04/20 07:09:21;;;;;;;11.80;5.43;;;;;;;9.41;66.61;102230.75;7390709;19;20327;-55
2023/04/20 07:11:48;;;;;;;15.82;5.75;;;;;;;9.38;66.73;102220.31;7390717;19;20047;-55
2023/04/20 07:14:15;;;;;;;13.52;5.07;;;;;;;9.36;66.68;102222.19;7388389;19;20385;-55
2023/04/20 07:16:42;;;;;;;12.35;5.38;;;;;;;9.49;66.73;102219.84;7389917;19;20019;-55
2023/04/20 07:19:09;;;;;;;11.32;5.18;;;;;;;9.43;66.78;102220.13;7390652;19;20077;-56
2023/04/20 07:21:37;;;;;;;10.93;5.28;;;;;;;9.35;66.86;102220.47;7389104;19;20025;-56
2023/04/20 07:24:04;;;;;;;12.95;5.63;;;;;;;9.34;66.90;102228.47;7387145;19;20021;-56
2023/04/20 07:26:31;;;;;;;10.48;4.82;;;;;;;9.36;67.17;102232.75;7390473;19;20026;-51
2023/04/20 07:28:58;;;;;;;12.30;5.75;;;;;;;9.40;67.16;102221.13;7390534;19;20074;-57
2023/04/20 07:31:25;;;;;;;12.07;5.40;;;;;;;9.39;67.43;102226.50;7389896;19;20543;-57
2023/04/20 07:33:52;;;;;;;12.88;5.90;;;;;;;9.43;67.03;102226.28;7388762;19;20018;-56
2023/04/20 07:36:21;;;;;;;11.95;5.38;;;;;;;9.39;67.63;102216.78;7386268;19;20018;-58
2023/04/20 07:38:48;;;;;;;12.00;6.07;;;;;;;9.34;67.70;102217.88;7389035;19;20093;-57
2023/04/20 07:41:15;;;;;;;11.85;6.00;;;;;;;9.36;67.60;102213.41;7389275;19;20022;-57
2023/04/20 07:43:43;;;;;;;11.77;6.00;;;;;;;9.39;67.65;102221.19;7388435;19;20025;-56
2023/04/20 07:46:19;;;;;;;12.23;5.90;;;;;;;9.46;67.61;102219.97;7389065;19;20502;-56
2023/04/20 07:48:47;;;;;;;12.70;5.60;;;;;;;9.42;67.30;102232.47;7390539;19;20022;-56
2023/04/20 07:51:14;;;;;;;14.00;6.47;;;;;;;9.45;67.40;102234.13;7389488;19;20030;-57
2023/04/20 07:53:43;;;;;;;13.32;6.20;;;;;;;9.39;67.62;102227.34;7387748;19;20014;-57
2023/04/20 07:56:10;;;;;;;13.07;6.13;;;;;;;9.46;67.49;102220.84;7389315;19;20014;-56
2023/04/20 07:58:39;;;;;;;12.15;5.95;;;;;;;9.58;66.91;102226.47;7386906;19;20029;-56
2023/04/20 08:01:06;;;;;;;12.63;6.15;;;;;;;9.56;67.02;102237.16;7388228;19;20035;-56
2023/04/20 08:03:34;;;;;;;10.45;5.40;;;;;;;9.44;68.04;102243.00;7391623;19;20022;-56
2023/04/20 08:06:01;;;;;;;12.65;5.55;;;;;;;9.38;68.03;102240.63;7396775;19;20023;-56
2023/04/20 08:08:28;;;;;;;11.32;5.35;;;;;;;9.32;67.92;102239.13;7395999;19;20023;-56
2023/04/20 08:10:57;;;;;;;11.05;5.18;;;;;;;9.38;67.98;102230.88;7396707;19;20014;-56
2023/04/20 08:13:24;;;;;;;10.57;5.50;;;;;;;9.43;67.70;102242.13;7394747;19;20427;-56
2023/04/20 08:15:51;;;;;;;14.02;5.93;;;;;;;9.55;67.50;102245.16;7395138;19;20011;-56
2023/04/20 08:18:19;;;;;;;15.25;5.50;;;;;;;9.50;67.69;102240.06;7396317;19;20074;-56
2023/04/20 08:20:47;;;;;;;11.07;5.45;;;;;;;9.55;67.85;102243.38;7395265;19;20010;-56
2023/04/20 08:23:14;;;;;;;11.55;5.13;;;;;;;9.57;67.39;102252.06;7394957;19;20022;-56
2023/04/20 08:25:41;;;;;;;8.93;4.80;;;;;;;9.65;67.17;102247.28;7393454;19;20618;-56
2023/04/20 08:28:08;;;;;;;13.07;5.90;;;;;;;9.59;67.42;102259.97;7396090;19;20143;-57
2023/04/20 08:30:45;;;;;;;11.75;5.63;;;;;;;9.59;67.54;102254.66;7392850;19;20021;-56
2023/04/20 08:33:12;;;;;;;10.50;5.10;;;;;;;9.67;66.94;102249.88;7394326;19;20519;-56
2023/04/20 08:35:39;;;;;;;11.25;5.00;;;;;;;9.62;67.37;102243.97;7394783;19;20023;-56
2023/04/20 08:38:06;;;;;;;10.30;5.05;;;;;;;9.67;66.96;102245.44;7395527;19;20015;-56
2023/04/20 08:40:35;;;;;;;11.45;4.75;;;;;;;9.84;66.83;102246.44;7394651;19;20024;-56
2023/04/20 08:43:02;;;;;;;10.13;5.10;;;;;;;9.86;66.88;102247.25;7394116;19;20014;-56
2023/04/20 08:45:30;;;;;;;10.55;5.07;;;;;;;9.86;66.87;102248.09;7394600;19;20014;-56
2023/04/20 08:47:57;;;;;;;10.07;5.30;;;;;;;9.76;66.83;102245.00;7393729;19;20022;-56
2023/04/20 08:50:24;;;;;;;12.50;5.32;;;;;;;9.76;67.36;102237.06;7394817;19;20022;-56
2023/04/20 08:52:51;;;;;;;9.32;5.05;;;;;;;9.77;67.23;102245.91;7394050;19;20019;-56
2023/04/20 08:55:18;;;;;;;11.45;5.30;;;;;;;9.89;66.85;102252.41;7392879;19;20491;-56
2023/04/20 08:57:48;;;;;;;10.70;5.13;;;;;;;9.93;66.57;102248.69;7394449;19;20431;-56
2023/04/20 09:00:16;;;;;;;10.82;4.95;;;;;;;10.00;66.52;102256.25;7394117;19;20491;-56
2023/04/20 09:02:54;;;;;;;9.95;5.20;;;;;;;10.08;66.80;102258.53;7391814;19;20035;-56
2023/04/20 09:05:29;;;;;;;10.20;4.72;;;;;;;10.11;66.29;102258.41;7393906;19;20245;-56
2023/04/20 09:07:58;;;;;;;11.93;5.20;;;;;;;9.95;66.96;102260.03;7394459;19;20010;-56
2023/04/20 09:10:37;;;;;;;11.60;4.97;;;;;;;9.90;67.07;102262.91;7393996;19;20050;-57
2023/04/20 09:13:04;;;;;;;10.68;4.68;;;;;;;9.96;66.87;102259.13;7393042;19;20026;-56
2023/04/20 09:15:32;;;;;;;9.95;5.07;;;;;;;9.91;66.80;102256.66;7391927;19;20097;-56
2023/04/20 09:17:58;;;;;;;10.48;4.82;;;;;;;9.98;66.56;102254.59;7393635;19;20018;-58
2023/04/20 09:20:35;;;;;;;10.15;5.10;;;;;;;10.03;66.90;102265.81;7391652;19;20090;-56
2023/04/20 09:23:20;;;;;;;10.70;4.95;;;;;;;10.14;67.07;102265.31;7391458;19;20019;-55
2023/04/20 09:25:51;;;;;;;11.07;4.93;;;;;;;10.14;66.63;102274.13;7393781;19;20082;-55
2023/04/20 09:28:19;;;;;;;11.00;5.00;;;;;;;10.20;66.72;102278.28;7393542;19;20019;-55
2023/04/20 09:30:48;;;;;;;11.30;5.25;;;;;;;10.02;67.01;102283.50;7394216;19;20018;-55
2023/04/20 09:33:15;;;;;;;10.15;4.65;;;;;;;9.97;66.68;102285.50;7390677;19;20086;-55
2023/04/20 09:35:43;;;;;;;10.00;4.40;;;;;;;9.97;66.57;102295.25;7391450;19;20021;-55
2023/04/20 09:38:14;;;;;;;10.25;5.10;;;;;;;9.87;67.50;102288.66;7391202;19;20046;-55
2023/04/20 09:40:42;;;;;;;10.57;4.65;;;;;;;9.94;67.36;102284.78;7392838;19;20031;-55
2023/04/20 09:43:16;;;;;;;11.88;5.43;;;;;;;9.96;67.66;102285.59;7389312;19;20501;-55
2023/04/20 09:45:43;;;;;;;10.07;4.88;;;;;;;10.07;67.06;102282.41;7391267;19;20024;-55
2023/04/20 09:48:11;;;;;;;10.43;5.38;;;;;;;10.00;66.92;102277.44;7393171;19;20014;-55
2023/04/20 09:50:38;;;;;;;8.48;4.93;;;;;;;10.01;66.49;102273.00;7392490;19;20014;-55
2023/04/20 09:53:16;;;;;;;9.65;5.10;;;;;;;10.02;66.36;102278.19;7392264;19;20022;-55
2023/04/20 09:55:48;;;;;;;12.32;5.18;;;;;;;10.07;66.43;102272.69;7391841;19;20023;-56
2023/04/20 09:58:19;;;;;;;10.38;5.10;;;;;;;10.10;66.41;102267.25;7392676;19;20029;-55
2023/04/20 10:00:47;;;;;;;11.13;4.90;;;;;;;10.08;66.21;102278.88;7391211;19;20018;-54
2023/04/20 10:03:16;;;;;;;13.30;5.00;;;;;;;10.11;66.51;102262.81;7390699;19;20014;-55
2023/04/20 10:05:44;;;;;;;10.10;4.88;;;;;;;10.14;66.46;102266.19;7391957;19;20025;-56
2023/04/20 10:08:11;;;;;;;9.35;4.88;;;;;;;10.18;66.22;102275.69;7392266;19;20019;-56
2023/04/20 10:10:46;;;;;;;10.48;5.43;;;;;;;10.20;66.39;102267.69;7391203;19;20055;-56
2023/04/20 10:13:15;;;;;;;11.18;5.55;;;;;;;10.42;65.06;102265.75;7391457;19;20036;-56
2023/04/20 10:15:42;;;;;;;9.18;5.10;;;;;;;10.84;63.85;102253.09;7394765;19;20022;-56
2023/04/20 10:18:23;;;;;;;15.10;5.90;;;;;;;11.35;62.37;102251.34;7390704;19;20014;-56
2023/04/20 10:21:02;;;;;;;10.68;5.38;;;;;;;11.53;62.19;102257.47;7391992;19;20043;-56
2023/04/20 10:23:29;;;;;;;9.23;5.00;;;;;;;11.45;62.07;102249.91;7392654;19;20023;-56
2023/04/20 10:25:59;;;;;;;9.93;5.10;;;;;;;11.22;62.82;102245.84;7393703;19;20039;-56
2023/04/20 10:28:45;;;;;;;8.75;5.07;;;;;;;11.20;62.85;102247.69;7394526;19;20017;-56
2023/04/20 10:31:14;;;;;;;10.88;5.32;;;;;;;11.47;62.46;102248.03;7395135;19;20033;-55
2023/04/20 10:33:49;;;;;;;11.98;5.20;;;;;;;11.69;61.79;102243.28;7390332;19;20021;-56
2023/04/20 10:36:36;;;;;;;11.35;5.50;;;;;;;11.82;61.47;102242.59;7391079;19;20039;-56
2023/04/20 10:39:24;;;;;;;12.20;5.90;;;;;;;11.59;61.84;102246.50;7392046;19;20100;-55
2023/04/20 10:41:54;;;;;;;9.77;5.22;;;;;;;11.54;62.19;102253.88;7390530;19;20022;-56
2023/04/20 10:44:21;;;;;;;11.75;5.43;;;;;;;11.39;62.30;102250.22;7388200;19;20015;-56
2023/04/20 10:46:49;;;;;;;12.85;5.65;;;;;;;11.46;62.21;102257.78;7390571;19;20092;-56
2023/04/20 10:49:17;;;;;;;10.15;5.38;;;;;;;11.35;62.84;102256.63;7391052;19;20523;-56
2023/04/20 10:51:49;;;;;;;10.43;5.57;;;;;;;11.47;62.52;102248.88;7391281;19;20371;-56
2023/04/20 10:54:16;;;;;;;8.85;5.28;;;;;;;11.49;62.44;102250.63;7388737;19;20017;-56
2023/04/20 10:56:44;;;;;;;10.77;5.82;;;;;;;11.43;62.15;102239.38;7390653;19;20014;-56
2023/04/20 10:59:14;;;;;;;11.45;5.72;;;;;;;11.34;62.54;102239.88;7390772;19;20022;-56
2023/04/20 11:01:42;;;;;;;12.35;6.40;;;;;;;11.37;62.51;102236.19;7390353;19;20027;-56
2023/04/20 11:04:10;;;;;;;10.80;6.00;;;;;;;11.30;62.48;102240.13;7388574;19;20018;-56
2023/04/20 11:06:39;;;;;;;10.63;5.50;;;;;;;11.30;62.32;102235.66;7388874;19;20028;-56
2023/04/20 11:09:19;;;;;;;10.32;5.78;;;;;;;11.44;62.14;102230.47;7389725;19;20014;-56
2023/04/20 11:11:57;;;;;;;10.10;5.90;;;;;;;11.43;62.01;102223.47;7390689;19;20050;-56
2023/04/20 11:14:25;;;;;;;11.45;6.10;;;;;;;11.58;61.46;102226.22;7388388;19;20043;-56
2023/04/20 11:16:52;;;;;;;10.07;5.47;;;;;;;11.76;61.08;102216.41;7390106;19;20776;-56
2023/04/20 11:19:37;;;;;;;10.88;6.28;;;;;;;11.93;59.85;102222.50;7390037;19;20033;-55
2023/04/20 11:22:07;;;;;;;12.00;6.28;;;;;;;11.84;59.71;102228.34;7390028;19;20090;-55
2023/04/20 11:24:34;;;;;;;11.15;6.18;;;;;;;11.86;59.72;102230.91;7387641;19;20029;-55
2023/04/20 11:27:03;;;;;;;9.77;5.50;;;;;;;11.61;59.83;102224.28;7390538;19;20026;-55
2023/04/20 11:29:38;;;;;;;10.70;5.75;;;;;;;11.66;60.22;102221.34;7389945;19;20043;-55
2023/04/20 11:32:07;;;;;;;11.82;6.20;;;;;;;11.82;60.08;102216.06;7390154;19;20019;-55
2023/04/20 11:34:38;;;;;;;11.35;5.90;;;;;;;12.12;58.77;102218.81;7389134;19;20046;-55